East Farms, Washington
Current Conditions -  °F | °C
As of 2:53 AM on Friday 19 Dec 2014 (Local Time) from KSFF Reporting Station
Overcast Overcast  
Wind Chill: 37°   Ceiling: 8000
Heat Index: 42°   Visibility: 10mi
Dew Point: 36°   Wind: 8mph
Humidity: 79%   Direction: 70°ENE
Pressure: 29.89"   Gusts: NA
Location:  47.7153°N, 117.066°W
Report Text: KSFF 191053Z AUTO 07007KT 10SM FEW042 SCT050 OVC080 06/02 A2989 RMK AO2 SLP128 T00560022
Loading
Personal Weather Stations






























Interactive Weather Map New forecast layout! Learn more

10-Day Weather Forecast

Advertisements
Track Severe Weather on mobile